sensor_id;sensor_type;location;lat;lon;timestamp;P1;durP1;ratioP1;P2;durP2;ratioP2
37349;SDS011;23231;52.358;4.926;2022-08-24T00:04:09;4.30;;;2.30;;
37349;SDS011;23231;52.358;4.926;2022-08-24T00:09:09;4.15;;;2.45;;
37349;SDS011;23231;52.358;4.926;2022-08-24T00:14:10;4.47;;;2.45;;
37349;SDS011;23231;52.358;4.926;2022-08-24T00:19:11;4.80;;;2.80;;
37349;SDS011;23231;52.358;4.926;2022-08-24T00:24:11;4.40;;;2.80;;
37349;SDS011;23231;52.358;4.926;2022-08-24T00:29:12;4.90;;;2.70;;
37349;SDS011;23231;52.358;4.926;2022-08-24T00:34:13;5.65;;;3.10;;
37349;SDS011;23231;52.358;4.926;2022-08-24T00:39:16;5.60;;;3.10;;
37349;SDS011;23231;52.358;4.926;2022-08-24T00:44:17;5.80;;;2.95;;
37349;SDS011;23231;52.358;4.926;2022-08-24T00:54:41;7.18;;;4.47;;
37349;SDS011;23231;52.358;4.926;2022-08-24T00:59:51;5.40;;;3.38;;
37349;SDS011;23231;52.358;4.926;2022-08-24T01:04:56;6.30;;;3.70;;
37349;SDS011;23231;52.358;4.926;2022-08-24T01:10:03;5.80;;;4.03;;
37349;SDS011;23231;52.358;4.926;2022-08-24T01:15:06;6.03;;;3.50;;
37349;SDS011;23231;52.358;4.926;2022-08-24T01:20:08;6.18;;;3.58;;
37349;SDS011;23231;52.358;4.926;2022-08-24T01:25:09;5.60;;;4.03;;
37349;SDS011;23231;52.358;4.926;2022-08-24T01:30:11;6.63;;;4.75;;
37349;SDS011;23231;52.358;4.926;2022-08-24T01:35:14;7.20;;;3.80;;
37349;SDS011;23231;52.358;4.926;2022-08-24T01:40:14;5.78;;;4.13;;
37349;SDS011;23231;52.358;4.926;2022-08-24T01:45:15;9.23;;;5.47;;
37349;SDS011;23231;52.358;4.926;2022-08-24T01:50:16;11.50;;;6.55;;
37349;SDS011;23231;52.358;4.926;2022-08-24T01:55:17;13.63;;;8.95;;
37349;SDS011;23231;52.358;4.926;2022-08-24T02:00:17;14.65;;;10.95;;
37349;SDS011;23231;52.358;4.926;2022-08-24T02:05:18;16.48;;;11.38;;
37349;SDS011;23231;52.358;4.926;2022-08-24T02:10:19;20.00;;;11.13;;
37349;SDS011;23231;52.358;4.926;2022-08-24T02:15:20;17.42;;;12.60;;
37349;SDS011;23231;52.358;4.926;2022-08-24T02:20:22;26.85;;;18.92;;
37349;SDS011;23231;52.358;4.926;2022-08-24T02:25:23;25.20;;;18.85;;
37349;SDS011;23231;52.358;4.926;2022-08-24T02:30:24;22.90;;;16.13;;
37349;SDS011;23231;52.358;4.926;2022-08-24T02:35:27;27.02;;;19.17;;
37349;SDS011;23231;52.358;4.926;2022-08-24T02:40:28;21.40;;;15.73;;
37349;SDS011;23231;52.358;4.926;2022-08-24T02:45:29;22.67;;;16.77;;
37349;SDS011;23231;52.358;4.926;2022-08-24T02:50:29;23.65;;;17.23;;
37349;SDS011;23231;52.358;4.926;2022-08-24T02:55:30;21.58;;;15.82;;
37349;SDS011;23231;52.358;4.926;2022-08-24T03:00:30;16.98;;;12.30;;
37349;SDS011;23231;52.358;4.926;2022-08-24T03:05:31;19.80;;;14.77;;
37349;SDS011;23231;52.358;4.926;2022-08-24T03:10:32;20.73;;;16.02;;
37349;SDS011;23231;52.358;4.926;2022-08-24T03:15:32;19.73;;;14.82;;
37349;SDS011;23231;52.358;4.926;2022-08-24T03:20:32;17.40;;;12.70;;
37349;SDS011;23231;52.358;4.926;2022-08-24T03:25:33;18.27;;;12.60;;
37349;SDS011;23231;52.358;4.926;2022-08-24T03:30:33;25.00;;;16.40;;
37349;SDS011;23231;52.358;4.926;2022-08-24T03:35:34;26.33;;;16.95;;
37349;SDS011;23231;52.358;4.926;2022-08-24T03:40:35;27.35;;;18.60;;
37349;SDS011;23231;52.358;4.926;2022-08-24T03:45:35;20.25;;;14.10;;
37349;SDS011;23231;52.358;4.926;2022-08-24T03:50:36;21.88;;;15.57;;
37349;SDS011;23231;52.358;4.926;2022-08-24T03:55:36;16.33;;;12.30;;
37349;SDS011;23231;52.358;4.926;2022-08-24T04:00:36;22.45;;;16.23;;
37349;SDS011;23231;52.358;4.926;2022-08-24T04:05:38;22.63;;;15.50;;
37349;SDS011;23231;52.358;4.926;2022-08-24T04:10:42;18.90;;;13.35;;
37349;SDS011;23231;52.358;4.926;2022-08-24T04:15:43;20.73;;;15.10;;
37349;SDS011;23231;52.358;4.926;2022-08-24T04:20:44;28.80;;;20.02;;
37349;SDS011;23231;52.358;4.926;2022-08-24T04:25:46;28.98;;;21.55;;
37349;SDS011;23231;52.358;4.926;2022-08-24T04:30:47;32.83;;;23.20;;
37349;SDS011;23231;52.358;4.926;2022-08-24T04:35:51;31.63;;;23.10;;
37349;SDS011;23231;52.358;4.926;2022-08-24T04:40:51;30.85;;;21.95;;
37349;SDS011;23231;52.358;4.926;2022-08-24T04:45:52;30.48;;;21.73;;
37349;SDS011;23231;52.358;4.926;2022-08-24T04:50:52;30.83;;;22.08;;
37349;SDS011;23231;52.358;4.926;2022-08-24T04:55:53;39.00;;;27.67;;
37349;SDS011;23231;52.358;4.926;2022-08-24T05:00:53;33.38;;;23.55;;
37349;SDS011;23231;52.358;4.926;2022-08-24T05:05:54;34.17;;;25.75;;
37349;SDS011;23231;52.358;4.926;2022-08-24T05:10:55;35.83;;;23.13;;
37349;SDS011;23231;52.358;4.926;2022-08-24T05:15:55;33.70;;;24.23;;
37349;SDS011;23231;52.358;4.926;2022-08-24T05:20:56;34.97;;;24.38;;
37349;SDS011;23231;52.358;4.926;2022-08-24T05:26:06;39.67;;;25.77;;
37349;SDS011;23231;52.358;4.926;2022-08-24T05:31:10;39.22;;;25.17;;
37349;SDS011;23231;52.358;4.926;2022-08-24T05:41:21;33.08;;;23.55;;
37349;SDS011;23231;52.358;4.926;2022-08-24T05:46:22;34.22;;;24.80;;
37349;SDS011;23231;52.358;4.926;2022-08-24T05:51:23;31.27;;;22.80;;
37349;SDS011;23231;52.358;4.926;2022-08-24T05:56:23;35.30;;;25.52;;
37349;SDS011;23231;52.358;4.926;2022-08-24T06:01:24;32.67;;;23.95;;
37349;SDS011;23231;52.358;4.926;2022-08-24T06:06:26;30.75;;;23.05;;
37349;SDS011;23231;52.358;4.926;2022-08-24T06:11:31;29.80;;;22.65;;
37349;SDS011;23231;52.358;4.926;2022-08-24T06:16:37;36.45;;;25.05;;
37349;SDS011;23231;52.358;4.926;2022-08-24T06:21:38;32.72;;;25.05;;
37349;SDS011;23231;52.358;4.926;2022-08-24T06:26:40;34.95;;;24.25;;
37349;SDS011;23231;52.358;4.926;2022-08-24T06:32:00;28.05;;;22.17;;
37349;SDS011;23231;52.358;4.926;2022-08-24T06:37:00;27.75;;;20.95;;
37349;SDS011;23231;52.358;4.926;2022-08-24T06:42:01;26.35;;;20.52;;
37349;SDS011;23231;52.358;4.926;2022-08-24T06:47:01;28.95;;;19.13;;
37349;SDS011;23231;52.358;4.926;2022-08-24T06:52:02;28.33;;;19.38;;
37349;SDS011;23231;52.358;4.926;2022-08-24T06:57:04;23.92;;;18.15;;
37349;SDS011;23231;52.358;4.926;2022-08-24T07:02:06;23.13;;;16.15;;
37349;SDS011;23231;52.358;4.926;2022-08-24T07:07:07;24.65;;;16.63;;
37349;SDS011;23231;52.358;4.926;2022-08-24T07:12:07;25.67;;;17.95;;
37349;SDS011;23231;52.358;4.926;2022-08-24T07:17:08;23.92;;;17.45;;
37349;SDS011;23231;52.358;4.926;2022-08-24T07:22:08;26.17;;;17.20;;
37349;SDS011;23231;52.358;4.926;2022-08-24T07:27:09;22.50;;;16.20;;
37349;SDS011;23231;52.358;4.926;2022-08-24T07:32:09;20.90;;;15.35;;
37349;SDS011;23231;52.358;4.926;2022-08-24T07:37:09;17.45;;;13.15;;
37349;SDS011;23231;52.358;4.926;2022-08-24T07:42:10;16.48;;;12.25;;
37349;SDS011;23231;52.358;4.926;2022-08-24T07:47:10;16.92;;;11.75;;
37349;SDS011;23231;52.358;4.926;2022-08-24T07:52:11;18.90;;;11.05;;
37349;SDS011;23231;52.358;4.926;2022-08-24T07:57:12;13.85;;;10.40;;
37349;SDS011;23231;52.358;4.926;2022-08-24T08:02:12;15.20;;;11.30;;
37349;SDS011;23231;52.358;4.926;2022-08-24T08:07:13;14.57;;;10.15;;
37349;SDS011;23231;52.358;4.926;2022-08-24T08:12:14;15.90;;;9.65;;
37349;SDS011;23231;52.358;4.926;2022-08-24T08:17:14;15.45;;;10.50;;
37349;SDS011;23231;52.358;4.926;2022-08-24T08:22:15;14.18;;;10.10;;
37349;SDS011;23231;52.358;4.926;2022-08-24T08:27:34;15.20;;;11.80;;
37349;SDS011;23231;52.358;4.926;2022-08-24T08:32:35;13.13;;;9.30;;
37349;SDS011;23231;52.358;4.926;2022-08-24T08:37:35;16.08;;;11.85;;
37349;SDS011;23231;52.358;4.926;2022-08-24T08:48:14;11.63;;;7.45;;
37349;SDS011;23231;52.358;4.926;2022-08-24T08:53:45;13.90;;;8.82;;
37349;SDS011;23231;52.358;4.926;2022-08-24T09:26:01;11.45;;;7.07;;
37349;SDS011;23231;52.358;4.926;2022-08-24T10:14:05;7.15;;;4.20;;
37349;SDS011;23231;52.358;4.926;2022-08-24T10:35:34;6.05;;;3.08;;
37349;SDS011;23231;52.358;4.926;2022-08-24T10:40:39;5.50;;;3.05;;
37349;SDS011;23231;52.358;4.926;2022-08-24T10:45:54;5.55;;;3.08;;
37349;SDS011;23231;52.358;4.926;2022-08-24T11:02:25;5.05;;;2.45;;
37349;SDS011;23231;52.358;4.926;2022-08-24T11:07:34;5.38;;;2.85;;
37349;SDS011;23231;52.358;4.926;2022-08-24T11:12:37;3.63;;;2.40;;
37349;SDS011;23231;52.358;4.926;2022-08-24T11:17:40;4.32;;;2.40;;
37349;SDS011;23231;52.358;4.926;2022-08-24T11:23:03;5.75;;;1.98;;
37349;SDS011;23231;52.358;4.926;2022-08-24T11:28:52;3.92;;;1.70;;
37349;SDS011;23231;52.358;4.926;2022-08-24T11:33:34;2.70;;;1.33;;
37349;SDS011;23231;52.358;4.926;2022-08-24T11:38:44;3.35;;;1.52;;
37349;SDS011;23231;52.358;4.926;2022-08-24T11:44:00;4.13;;;1.80;;
37349;SDS011;23231;52.358;4.926;2022-08-24T11:49:13;3.20;;;1.40;;
37349;SDS011;23231;52.358;4.926;2022-08-24T12:05:29;4.97;;;2.53;;
37349;SDS011;23231;52.358;4.926;2022-08-24T12:20:56;4.50;;;1.70;;
37349;SDS011;23231;52.358;4.926;2022-08-24T12:26:32;2.30;;;1.20;;
37349;SDS011;23231;52.358;4.926;2022-08-24T12:31:40;4.30;;;2.03;;
37349;SDS011;23231;52.358;4.926;2022-08-24T12:37:00;3.83;;;2.20;;
37349;SDS011;23231;52.358;4.926;2022-08-24T12:47:06;3.88;;;2.42;;
37349;SDS011;23231;52.358;4.926;2022-08-24T13:02:40;4.68;;;2.35;;
37349;SDS011;23231;52.358;4.926;2022-08-24T13:07:45;3.70;;;1.63;;
37349;SDS011;23231;52.358;4.926;2022-08-24T13:13:38;4.40;;;1.83;;
37349;SDS011;23231;52.358;4.926;2022-08-24T13:23:18;4.85;;;1.85;;
37349;SDS011;23231;52.358;4.926;2022-08-24T13:39:05;4.95;;;2.03;;
37349;SDS011;23231;52.358;4.926;2022-08-24T14:21:48;4.63;;;1.63;;
37349;SDS011;23231;52.358;4.926;2022-08-24T14:59:37;5.00;;;2.42;;
37349;SDS011;23231;52.358;4.926;2022-08-24T15:05:21;6.50;;;2.78;;
37349;SDS011;23231;52.358;4.926;2022-08-24T15:10:28;4.32;;;2.45;;
37349;SDS011;23231;52.358;4.926;2022-08-24T15:21:04;5.97;;;2.42;;
37349;SDS011;23231;52.358;4.926;2022-08-24T15:26:07;5.47;;;2.40;;
37349;SDS011;23231;52.358;4.926;2022-08-24T15:31:18;6.10;;;2.28;;
37349;SDS011;23231;52.358;4.926;2022-08-24T15:36:21;4.97;;;2.53;;
37349;SDS011;23231;52.358;4.926;2022-08-24T15:41:29;5.20;;;2.47;;
37349;SDS011;23231;52.358;4.926;2022-08-24T15:46:31;4.80;;;2.35;;
37349;SDS011;23231;52.358;4.926;2022-08-24T15:51:42;4.53;;;2.35;;
37349;SDS011;23231;52.358;4.926;2022-08-24T15:56:45;5.20;;;2.40;;
37349;SDS011;23231;52.358;4.926;2022-08-24T16:01:51;6.15;;;2.50;;
37349;SDS011;23231;52.358;4.926;2022-08-24T16:07:15;6.18;;;2.60;;
37349;SDS011;23231;52.358;4.926;2022-08-24T16:12:21;6.93;;;3.58;;
37349;SDS011;23231;52.358;4.926;2022-08-24T16:22:37;6.60;;;3.10;;
37349;SDS011;23231;52.358;4.926;2022-08-24T16:32:58;4.50;;;2.17;;
37349;SDS011;23231;52.358;4.926;2022-08-24T16:37:59;8.93;;;3.33;;
37349;SDS011;23231;52.358;4.926;2022-08-24T16:42:59;5.90;;;2.55;;
37349;SDS011;23231;52.358;4.926;2022-08-24T16:48:00;4.63;;;2.10;;
37349;SDS011;23231;52.358;4.926;2022-08-24T16:53:00;4.75;;;2.10;;
37349;SDS011;23231;52.358;4.926;2022-08-24T16:58:00;4.65;;;1.80;;
37349;SDS011;23231;52.358;4.926;2022-08-24T17:03:01;4.40;;;2.17;;
37349;SDS011;23231;52.358;4.926;2022-08-24T17:08:02;3.38;;;1.90;;
37349;SDS011;23231;52.358;4.926;2022-08-24T17:13:03;6.13;;;3.15;;
37349;SDS011;23231;52.358;4.926;2022-08-24T17:18:04;5.25;;;3.40;;
37349;SDS011;23231;52.358;4.926;2022-08-24T17:23:06;3.97;;;2.35;;
37349;SDS011;23231;52.358;4.926;2022-08-24T17:28:08;6.18;;;4.00;;
37349;SDS011;23231;52.358;4.926;2022-08-24T17:33:10;5.45;;;3.63;;
37349;SDS011;23231;52.358;4.926;2022-08-24T17:38:10;6.75;;;3.25;;
37349;SDS011;23231;52.358;4.926;2022-08-24T17:43:11;6.72;;;3.83;;
37349;SDS011;23231;52.358;4.926;2022-08-24T17:48:12;7.53;;;4.63;;
37349;SDS011;23231;52.358;4.926;2022-08-24T17:53:24;6.30;;;3.58;;
37349;SDS011;23231;52.358;4.926;2022-08-24T17:58:24;8.88;;;4.28;;
37349;SDS011;23231;52.358;4.926;2022-08-24T18:03:24;8.35;;;5.03;;
37349;SDS011;23231;52.358;4.926;2022-08-24T18:08:25;6.82;;;4.00;;
37349;SDS011;23231;52.358;4.926;2022-08-24T18:13:26;8.02;;;6.07;;
37349;SDS011;23231;52.358;4.926;2022-08-24T18:18:26;8.63;;;5.22;;
37349;SDS011;23231;52.358;4.926;2022-08-24T18:23:27;7.60;;;4.82;;
37349;SDS011;23231;52.358;4.926;2022-08-24T18:28:27;7.18;;;5.30;;
37349;SDS011;23231;52.358;4.926;2022-08-24T18:33:27;9.05;;;6.43;;
37349;SDS011;23231;52.358;4.926;2022-08-24T18:38:28;7.93;;;5.90;;
37349;SDS011;23231;52.358;4.926;2022-08-24T18:43:28;7.53;;;6.05;;
37349;SDS011;23231;52.358;4.926;2022-08-24T18:48:29;9.05;;;5.65;;
37349;SDS011;23231;52.358;4.926;2022-08-24T18:53:29;8.98;;;6.15;;
37349;SDS011;23231;52.358;4.926;2022-08-24T18:58:31;7.70;;;6.50;;
37349;SDS011;23231;52.358;4.926;2022-08-24T19:03:31;7.82;;;5.35;;
37349;SDS011;23231;52.358;4.926;2022-08-24T19:08:32;9.80;;;5.47;;
37349;SDS011;23231;52.358;4.926;2022-08-24T19:13:33;7.82;;;5.22;;
37349;SDS011;23231;52.358;4.926;2022-08-24T19:18:33;8.85;;;5.40;;
37349;SDS011;23231;52.358;4.926;2022-08-24T19:23:34;7.30;;;4.18;;
37349;SDS011;23231;52.358;4.926;2022-08-24T19:28:34;7.18;;;3.70;;
37349;SDS011;23231;52.358;4.926;2022-08-24T19:33:36;7.53;;;4.60;;
37349;SDS011;23231;52.358;4.926;2022-08-24T19:38:40;7.30;;;4.05;;
37349;SDS011;23231;52.358;4.926;2022-08-24T19:43:40;6.38;;;4.38;;
37349;SDS011;23231;52.358;4.926;2022-08-24T19:48:59;9.82;;;5.60;;
37349;SDS011;23231;52.358;4.926;2022-08-24T19:53:59;8.27;;;5.78;;
37349;SDS011;23231;52.358;4.926;2022-08-24T19:59:01;9.75;;;7.22;;
37349;SDS011;23231;52.358;4.926;2022-08-24T20:04:06;10.15;;;8.23;;
37349;SDS011;23231;52.358;4.926;2022-08-24T20:09:07;10.68;;;8.13;;
37349;SDS011;23231;52.358;4.926;2022-08-24T20:14:08;12.88;;;11.05;;
37349;SDS011;23231;52.358;4.926;2022-08-24T20:19:09;15.73;;;11.05;;
37349;SDS011;23231;52.358;4.926;2022-08-24T20:24:10;16.05;;;12.38;;
37349;SDS011;23231;52.358;4.926;2022-08-24T20:29:11;18.35;;;13.48;;
37349;SDS011;23231;52.358;4.926;2022-08-24T20:34:12;18.13;;;14.15;;
37349;SDS011;23231;52.358;4.926;2022-08-24T20:39:13;19.60;;;15.02;;
37349;SDS011;23231;52.358;4.926;2022-08-24T20:44:17;21.20;;;16.75;;
37349;SDS011;23231;52.358;4.926;2022-08-24T20:49:19;22.70;;;18.90;;
37349;SDS011;23231;52.358;4.926;2022-08-24T20:54:25;24.95;;;20.88;;
37349;SDS011;23231;52.358;4.926;2022-08-24T20:59:26;26.27;;;19.88;;
37349;SDS011;23231;52.358;4.926;2022-08-24T21:04:26;28.27;;;20.85;;
37349;SDS011;23231;52.358;4.926;2022-08-24T21:09:27;25.98;;;20.50;;
37349;SDS011;23231;52.358;4.926;2022-08-24T21:14:27;26.90;;;20.88;;
37349;SDS011;23231;52.358;4.926;2022-08-24T21:19:27;22.52;;;18.00;;
37349;SDS011;23231;52.358;4.926;2022-08-24T21:24:29;22.70;;;20.30;;
37349;SDS011;23231;52.358;4.926;2022-08-24T21:29:29;25.52;;;21.73;;
37349;SDS011;23231;52.358;4.926;2022-08-24T21:34:30;24.20;;;19.90;;
37349;SDS011;23231;52.358;4.926;2022-08-24T21:39:40;23.90;;;19.20;;
37349;SDS011;23231;52.358;4.926;2022-08-24T21:44:41;26.45;;;21.95;;
37349;SDS011;23231;52.358;4.926;2022-08-24T21:49:41;19.67;;;17.08;;
37349;SDS011;23231;52.358;4.926;2022-08-24T21:54:42;20.50;;;17.10;;
37349;SDS011;23231;52.358;4.926;2022-08-24T21:59:42;21.92;;;17.83;;
37349;SDS011;23231;52.358;4.926;2022-08-24T22:04:43;21.83;;;19.00;;
37349;SDS011;23231;52.358;4.926;2022-08-24T22:09:43;23.70;;;19.33;;
37349;SDS011;23231;52.358;4.926;2022-08-24T22:14:44;21.48;;;18.20;;
37349;SDS011;23231;52.358;4.926;2022-08-24T22:19:44;22.30;;;19.88;;
37349;SDS011;23231;52.358;4.926;2022-08-24T22:24:45;19.45;;;16.60;;
37349;SDS011;23231;52.358;4.926;2022-08-24T22:29:45;22.13;;;17.63;;
37349;SDS011;23231;52.358;4.926;2022-08-24T22:34:45;21.70;;;18.75;;
37349;SDS011;23231;52.358;4.926;2022-08-24T22:39:46;25.80;;;21.67;;
37349;SDS011;23231;52.358;4.926;2022-08-24T22:44:46;24.15;;;21.38;;
37349;SDS011;23231;52.358;4.926;2022-08-24T22:49:47;28.75;;;22.67;;
37349;SDS011;23231;52.358;4.926;2022-08-24T22:54:48;25.27;;;21.65;;
37349;SDS011;23231;52.358;4.926;2022-08-24T22:59:48;27.92;;;22.05;;
37349;SDS011;23231;52.358;4.926;2022-08-24T23:04:50;23.77;;;21.30;;
37349;SDS011;23231;52.358;4.926;2022-08-24T23:09:51;24.10;;;19.73;;
37349;SDS011;23231;52.358;4.926;2022-08-24T23:14:52;24.40;;;21.80;;
37349;SDS011;23231;52.358;4.926;2022-08-24T23:19:52;21.27;;;17.77;;
37349;SDS011;23231;52.358;4.926;2022-08-24T23:24:59;22.70;;;20.30;;
37349;SDS011;23231;52.358;4.926;2022-08-24T23:30:00;24.55;;;20.45;;
37349;SDS011;23231;52.358;4.926;2022-08-24T23:35:01;24.27;;;20.38;;
37349;SDS011;23231;52.358;4.926;2022-08-24T23:40:01;24.90;;;22.13;;
37349;SDS011;23231;52.358;4.926;2022-08-24T23:45:03;24.20;;;20.95;;
37349;SDS011;23231;52.358;4.926;2022-08-24T23:50:03;27.42;;;21.23;;
37349;SDS011;23231;52.358;4.926;2022-08-24T23:55:04;23.33;;;19.98;;
